Big Stone 5 — WSE3119 — position and weather

sailwx.info

Track history (hours):
 
Tides and Currents Weather Stations Pressure Air Temp Water Temp Dewpoint Dewpoint Depression Visibility Wind Speed Wind Dir Waves Ship Positions

Big Stone 5

Owner: DELAWARE BAY LAUNCH SERVICE INC, MILFORD, DE. More information available from US FCC via Universal Licensing System and Coast Guard Vessel Documentation Center.

Last reported at 2018-Jul-20 11:52 UTC. Time now 2018-Jul-22 01:04 UTC.
Position N 38°56' W 075°19'.

Length 16 m; draft 1 m.

Type: Pilot. MMSI: 367090580.

Date/timePositionNaut miles runAvg speedWind from/ knotsBaromVisibWave heightAir tempDewpointWater temp
2018-Jul-20 11:52N 38°56' W 075°19'0 1.1
2018-Jul-20 11:27N 38°57' W 075°19'611.8
2018-Jul-20 10:58N 38°57' W 075°11'612.1
2018-Jul-20 10:28N 38°56' W 075°19'0 0.0
2018-Jul-20 09:49N 38°56' W 075°19'0 0.0
2018-Jul-20 09:29N 38°56' W 075°19'0 0.0
2018-Jul-20 09:00N 38°56' W 075°19'0 0.0
2018-Jul-20 08:29N 38°56' W 075°19'0 0.0
2018-Jul-20 08:00N 38°56' W 075°19'0 0.0
2018-Jul-20 07:26N 38°56' W 075°19'0 0.0
2018-Jul-20 06:48N 38°56' W 075°19'0 0.0
2018-Jul-20 06:28N 38°56' W 075°19'0 0.1
2018-Jul-20 05:13N 38°56' W 075°19'618.4
2018-Jul-20 04:53N 38°57' W 075°11'2 0.3
2018-Jul-19 23:29N 38°56' W 075°10'7 0.6
2018-Jul-19 12:26N 38°56' W 075°19'0 0.0
2018-Jul-19 10:58N 38°56' W 075°19'0 0.0
2018-Jul-19 10:24N 38°56' W 075°19'0 0.0
2018-Jul-19 04:30N 38°56' W 075°19'11 5.5
2018-Jul-19 02:35N 38°55' W 075°06'1 7.9
2018-Jul-19 02:30N 38°55' W 075°06'10 8.3
2018-Jul-19 01:18N 38°56' W 075°19'0 0.2
2018-Jul-19 01:00N 38°56' W 075°19'3 5.5
2018-Jul-19 00:28N 38°57' W 075°15'3 0.1
2018-Jul-18 04:59N 38°56' W 075°19'0 0.0
2018-Jul-17 22:19N 38°56' W 075°19'815.0
2018-Jul-17 21:48N 38°55' W 075°09'8 0.7
2018-Jul-17 11:33N 38°56' W 075°19'0 0.0
2018-Jul-17 11:30N 38°56' W 075°19'0 0.0
2018-Jul-17 11:00N 38°56' W 075°19'0 0.0
2018-Jul-17 10:28N 38°56' W 075°19'0 0.0
2018-Jul-17 09:28N 38°56' W 075°19'0 0.0
2018-Jul-17 08:52N 38°56' W 075°19'611.6
2018-Jul-17 08:19N 38°57' W 075°11'515.9
2018-Jul-17 07:59N 38°56' W 075°18'1 1.2
2018-Jul-17 07:12N 38°56' W 075°19'0 0.0
2018-Jul-17 07:00N 38°56' W 075°19'0 0.0
2018-Jul-17 06:29N 38°56' W 075°19'0 0.0
2018-Jul-17 01:54N 38°56' W 075°19'0 0.0
2018-Jul-16 21:56N 38°56' W 075°19'6 8.9
2018-Jul-16 21:17N 38°59' W 075°12'3 7.6
2018-Jul-16 20:51N 38°56' W 075°10'0 0.1
2018-Jul-16 20:29N 38°56' W 075°10'3 5.3
2018-Jul-16 19:52N 38°59' W 075°12'513.3
2018-Jul-16 19:29N 38°56' W 075°18'710.2
2018-Jul-16 18:49N 38°55' W 075°09'3 8.1
2018-Jul-16 18:30N 38°57' W 075°12'2 0.5
2018-Jul-16 13:14N 38°56' W 075°15'1123.9
2018-Jul-16 12:48N 38°50' W 075°05'1 2.5
2018-Jul-16 12:30N 38°50' W 075°04'1122.3
2018-Jul-16 12:01N 38°59' W 075°12'610.9
2018-Jul-16 11:29N 38°56' W 075°19'613.3
2018-Jul-16 11:01N 38°57' W 075°11'612.8
2018-Jul-16 10:31N 38°56' W 075°19'0 0.0
2018-Jul-16 10:01N 38°56' W 075°19'0 0.0
2018-Jul-16 09:30N 38°56' W 075°19'0 0.0
2018-Jul-16 09:01N 38°56' W 075°19'0 0.0
2018-Jul-16 08:18N 38°56' W 075°19'0 0.0
2018-Jul-16 08:01N 38°56' W 075°19'0 0.0
2018-Jul-16 07:23N 38°56' W 075°19'0 0.0
2018-Jul-16 07:00N 38°56' W 075°19'0 0.0
2018-Jul-16 06:02N 38°56' W 075°19'0 0.0
2018-Jul-16 05:38N 38°56' W 075°19'0 0.0
2018-Jul-16 05:22N 38°56' W 075°19'0 0.0
2018-Jul-16 05:00N 38°56' W 075°19'0 0.0
2018-Jul-16 04:29N 38°56' W 075°19'0 0.0
2018-Jul-16 04:00N 38°56' W 075°19'6 0.9
2018-Jul-15 21:27N 38°57' W 075°11'1 0.2
2018-Jul-15 17:07N 38°57' W 075°11'7 1.8
2018-Jul-15 13:25N 38°56' W 075°19'0 0.0
2018-Jul-15 12:57N 38°56' W 075°19'0 0.0
2018-Jul-15 12:30N 38°56' W 075°19'0 0.0
2018-Jul-15 12:00N 38°56' W 075°19'0 0.5
2018-Jul-15 11:29N 38°57' W 075°19'816.9
2018-Jul-15 11:00N 38°55' W 075°09'812.9
2018-Jul-15 10:23N 38°56' W 075°19'0 0.0
2018-Jul-15 09:42N 38°56' W 075°19'0 0.0
2018-Jul-15 09:24N 38°56' W 075°19'0 0.0
2018-Jul-15 09:00N 38°56' W 075°19'711.4
2018-Jul-15 08:25N 38°57' W 075°10'717.0
2018-Jul-15 08:00N 38°56' W 075°19'0 0.2
2018-Jul-15 07:29N 38°56' W 075°19'0 0.0
2018-Jul-15 06:50N 38°56' W 075°19'0 0.0
2018-Jul-15 06:11N 38°56' W 075°19'0 0.0
2018-Jul-15 06:00N 38°56' W 075°19'0 0.0
2018-Jul-15 05:30N 38°56' W 075°19'0 0.0
2018-Jul-15 04:53N 38°56' W 075°19'0 0.0
2018-Jul-15 04:30N 38°56' W 075°19'0 0.0
2018-Jul-15 04:00N 38°56' W 075°19'0 0.0
2018-Jul-15 03:30N 38°56' W 075°19'0 0.5
2018-Jul-15 03:01N 38°57' W 075°19'815.8
2018-Jul-15 02:31N 38°55' W 075°09'3 6.6
2018-Jul-15 02:00N 38°58' W 075°11'0 0.3
2018-Jul-15 01:30N 38°58' W 075°12'0 0.4
2018-Jul-15 00:50N 38°58' W 075°11'0 0.3
2018-Jul-15 00:30N 38°58' W 075°11'1 0.4
2018-Jul-14 21:26N 38°57' W 075°11'1 0.2
2018-Jul-14 13:35N 38°56' W 075°10'117.4
2018-Jul-14 13:30N 38°56' W 075°12'610.0
2018-Jul-14 12:55N 38°56' W 075°19'0 0.0
2018-Jul-14 12:21N 38°56' W 075°19'0 0.0
2018-Jul-14 12:00N 38°56' W 075°19'0 0.9
2018-Jul-14 11:31N 38°57' W 075°19'4 8.2
2018-Jul-14 11:00N 38°57' W 075°13'4 6.3
2018-Jul-14 10:18N 38°56' W 075°19'0 0.0
2018-Jul-14 10:01N 38°56' W 075°19'0 0.0
2018-Jul-14 09:31N 38°56' W 075°19'0 0.0
2018-Jul-14 09:00N 38°56' W 075°19'0 0.0
2018-Jul-14 08:31N 38°56' W 075°19'0 0.0
2018-Jul-14 07:57N 38°56' W 075°19'0 0.0
2018-Jul-14 07:30N 38°56' W 075°19'0 0.0
2018-Jul-14 07:00N 38°56' W 075°19'0 0.0
2018-Jul-14 06:31N 38°56' W 075°19'0 0.0
2018-Jul-14 06:00N 38°56' W 075°19'0 0.0
2018-Jul-14 05:30N 38°56' W 075°19'0 0.0
2018-Jul-14 05:00N 38°56' W 075°19'0 0.0
2018-Jul-14 04:30N 38°56' W 075°19'0 0.0
2018-Jul-14 03:54N 38°56' W 075°19'0 0.0
2018-Jul-14 03:26N 38°56' W 075°19'0 0.0
2018-Jul-14 03:00N 38°56' W 075°19'0 0.0
2018-Jul-14 02:29N 38°56' W 075°19'0 0.0
2018-Jul-14 01:58N 38°56' W 075°19'0 0.0
2018-Jul-14 01:25N 38°56' W 075°19'0 0.0
2018-Jul-14 00:41N 38°56' W 075°19'1 0.1
2018-Jul-13 15:38N 38°56' W 075°18'1 0.6
2018-Jul-13 13:56N 38°56' W 075°19'715.5
2018-Jul-13 13:29N 38°56' W 075°10'7 3.2
2018-Jul-13 11:19N 38°56' W 075°19'0 0.0
2018-Jul-13 08:32N 38°56' W 075°19'0 0.2
2018-Jul-13 08:30N 38°56' W 075°19'6 9.1
2018-Jul-13 07:52N 38°57' W 075°12'1 1.6
2018-Jul-13 07:31N 38°56' W 075°12'5 2.5
2018-Jul-13 05:19N 38°56' W 075°19'6 8.8
2018-Jul-13 04:39N 38°57' W 075°12'0 2.0
2018-Jul-13 04:29N 38°57' W 075°11'510.4
2018-Jul-13 04:01N 38°56' W 075°17'1 2.6
2018-Jul-13 03:30N 38°56' W 075°19'0 0.0
2018-Jul-13 03:00N 38°56' W 075°19'0 0.0
2018-Jul-13 02:30N 38°56' W 075°19'0 0.0
2018-Jul-13 02:00N 38°56' W 075°19'0 0.0
2018-Jul-13 01:30N 38°56' W 075°19'0 0.0
2018-Jul-13 01:01N 38°56' W 075°19'0 0.0
2018-Jul-13 00:30N 38°56' W 075°19'7 1.4
2018-Jul-12 19:51N 38°57' W 075°11'614.7
2018-Jul-12 19:28N 38°56' W 075°18'6 2.1
2018-Jul-12 16:37N 38°57' W 075°10'410.4
2018-Jul-12 16:16N 38°57' W 075°15'8 2.1
2018-Jul-12 12:41N 38°54' W 075°06'423.1
2018-Jul-12 12:30N 38°55' W 075°11'6 0.7
2018-Jul-12 02:57N 38°56' W 075°19'0 0.0
2018-Jul-12 02:09N 38°56' W 075°19'0 0.0
2018-Jul-12 01:51N 38°56' W 075°19'0 0.0
2018-Jul-12 01:30N 38°56' W 075°19'0 0.0
2018-Jul-12 00:55N 38°56' W 075°19'0 0.0
2018-Jul-12 00:27N 38°56' W 075°19'712.5
2018-Jul-11 23:51N 38°56' W 075°10'616.9
2018-Jul-11 23:30N 38°56' W 075°17'6 3.0
2018-Jul-11 21:36N 38°56' W 075°09'213.0
2018-Jul-11 21:26N 38°56' W 075°12'3 0.3
2018-Jul-11 13:33N 38°59' W 075°13'010.6
2018-Jul-11 13:30N 38°59' W 075°12'1122.2
2018-Jul-11 13:00N 38°47' W 075°10'510.5
2018-Jul-11 12:30N 38°52' W 075°06'510.1
2018-Jul-11 11:58N 38°47' W 075°10'919.1
2018-Jul-11 11:30N 38°55' W 075°15'3 0.7
2018-Jul-11 06:22N 38°56' W 075°19'0 0.0
2018-Jul-11 06:00N 38°56' W 075°19'2 3.1
2018-Jul-11 05:30N 38°56' W 075°17'713.3
2018-Jul-11 05:01N 38°55' W 075°09'5 9.9
2018-Jul-11 04:30N 38°59' W 075°12'611.3
2018-Jul-11 04:00N 38°56' W 075°19'0 0.0
2018-Jul-11 03:30N 38°56' W 075°19'0 0.0
2018-Jul-11 03:00N 38°56' W 075°19'0 0.0
2018-Jul-11 02:22N 38°56' W 075°19'0 0.0
2018-Jul-11 02:00N 38°56' W 075°19'0 0.0
2018-Jul-11 01:30N 38°56' W 075°19'5 9.5
2018-Jul-11 00:55N 38°55' W 075°12'2 4.5
2018-Jul-11 00:23N 38°56' W 075°09'717.5
2018-Jul-11 00:01N 38°56' W 075°18'1 1.9
2018-Jul-10 23:29N 38°56' W 075°19'0 0.2
2018-Jul-10 21:14N 38°57' W 075°18'6 2.8
2018-Jul-10 19:11N 38°58' W 075°11'4 3.5
2018-Jul-10 18:08N 38°55' W 075°09'314.5
2018-Jul-10 17:54N 38°57' W 075°11'3 1.1
2018-Jul-10 14:55N 38°55' W 075°09'0 0.1
2018-Jul-10 13:34N 38°55' W 075°09'0 1.9
2018-Jul-10 13:28N 38°55' W 075°09'817.4
2018-Jul-10 13:00N 38°57' W 075°19'0 0.2
2018-Jul-10 12:20N 38°56' W 075°19'514.1
2018-Jul-10 12:01N 38°56' W 075°13'  
Track history (hours):
 
Tides and Currents Weather Stations Pressure Air Temp Water Temp Dewpoint Dewpoint Depression Visibility Wind Speed Wind Dir Waves Ship Positions

Big Stone 5

Owner: DELAWARE BAY LAUNCH SERVICE INC, MILFORD, DE. More information available from US FCC via Universal Licensing System and Coast Guard Vessel Documentation Center.

Last reported at 2018-Jul-20 11:52 UTC. Time now 2018-Jul-22 01:04 UTC.
Position N 38°56' W 075°19'.

Length 16 m; draft 1 m.

Type: Pilot. MMSI: 367090580.

Date/timePositionNaut miles runAvg speedWind from/ knotsBaromVisibWave heightAir tempDewpointWater temp
2018-Jul-20 11:52N 38°56' W 075°19'0 1.1
2018-Jul-20 11:27N 38°57' W 075°19'611.8
2018-Jul-20 10:58N 38°57' W 075°11'612.1
2018-Jul-20 10:28N 38°56' W 075°19'0 0.0
2018-Jul-20 09:49N 38°56' W 075°19'0 0.0
2018-Jul-20 09:29N 38°56' W 075°19'0 0.0
2018-Jul-20 09:00N 38°56' W 075°19'0 0.0
2018-Jul-20 08:29N 38°56' W 075°19'0 0.0
2018-Jul-20 08:00N 38°56' W 075°19'0 0.0
2018-Jul-20 07:26N 38°56' W 075°19'0 0.0
2018-Jul-20 06:48N 38°56' W 075°19'0 0.0
2018-Jul-20 06:28N 38°56' W 075°19'0 0.1
2018-Jul-20 05:13N 38°56' W 075°19'618.4
2018-Jul-20 04:53N 38°57' W 075°11'2 0.3
2018-Jul-19 23:29N 38°56' W 075°10'7 0.6
2018-Jul-19 12:26N 38°56' W 075°19'0 0.0
2018-Jul-19 10:58N 38°56' W 075°19'0 0.0
2018-Jul-19 10:24N 38°56' W 075°19'0 0.0
2018-Jul-19 04:30N 38°56' W 075°19'11 5.5
2018-Jul-19 02:35N 38°55' W 075°06'1 7.9
2018-Jul-19 02:30N 38°55' W 075°06'10 8.3
2018-Jul-19 01:18N 38°56' W 075°19'0 0.2
2018-Jul-19 01:00N 38°56' W 075°19'3 5.5
2018-Jul-19 00:28N 38°57' W 075°15'3 0.1
2018-Jul-18 04:59N 38°56' W 075°19'0 0.0
2018-Jul-17 22:19N 38°56' W 075°19'815.0
2018-Jul-17 21:48N 38°55' W 075°09'8 0.7
2018-Jul-17 11:33N 38°56' W 075°19'0 0.0
2018-Jul-17 11:30N 38°56' W 075°19'0 0.0
2018-Jul-17 11:00N 38°56' W 075°19'0 0.0
2018-Jul-17 10:28N 38°56' W 075°19'0 0.0
2018-Jul-17 09:28N 38°56' W 075°19'0 0.0
2018-Jul-17 08:52N 38°56' W 075°19'611.6
2018-Jul-17 08:19N 38°57' W 075°11'515.9
2018-Jul-17 07:59N 38°56' W 075°18'1 1.2
2018-Jul-17 07:12N 38°56' W 075°19'0 0.0
2018-Jul-17 07:00N 38°56' W 075°19'0 0.0
2018-Jul-17 06:29N 38°56' W 075°19'0 0.0
2018-Jul-17 01:54N 38°56' W 075°19'0 0.0
2018-Jul-16 21:56N 38°56' W 075°19'6 8.9
2018-Jul-16 21:17N 38°59' W 075°12'3 7.6
2018-Jul-16 20:51N 38°56' W 075°10'0 0.1
2018-Jul-16 20:29N 38°56' W 075°10'3 5.3
2018-Jul-16 19:52N 38°59' W 075°12'513.3
2018-Jul-16 19:29N 38°56' W 075°18'710.2
2018-Jul-16 18:49N 38°55' W 075°09'3 8.1
2018-Jul-16 18:30N 38°57' W 075°12'2 0.5
2018-Jul-16 13:14N 38°56' W 075°15'1123.9
2018-Jul-16 12:48N 38°50' W 075°05'1 2.5
2018-Jul-16 12:30N 38°50' W 075°04'1122.3
2018-Jul-16 12:01N 38°59' W 075°12'610.9
2018-Jul-16 11:29N 38°56' W 075°19'613.3
2018-Jul-16 11:01N 38°57' W 075°11'612.8
2018-Jul-16 10:31N 38°56' W 075°19'0 0.0
2018-Jul-16 10:01N 38°56' W 075°19'0 0.0
2018-Jul-16 09:30N 38°56' W 075°19'0 0.0
2018-Jul-16 09:01N 38°56' W 075°19'0 0.0
2018-Jul-16 08:18N 38°56' W 075°19'0 0.0
2018-Jul-16 08:01N 38°56' W 075°19'0 0.0
2018-Jul-16 07:23N 38°56' W 075°19'0 0.0
2018-Jul-16 07:00N 38°56' W 075°19'0 0.0
2018-Jul-16 06:02N 38°56' W 075°19'0 0.0
2018-Jul-16 05:38N 38°56' W 075°19'0 0.0
2018-Jul-16 05:22N 38°56' W 075°19'0 0.0
2018-Jul-16 05:00N 38°56' W 075°19'0 0.0
2018-Jul-16 04:29N 38°56' W 075°19'0 0.0
2018-Jul-16 04:00N 38°56' W 075°19'6 0.9
2018-Jul-15 21:27N 38°57' W 075°11'1 0.2
2018-Jul-15 17:07N 38°57' W 075°11'7 1.8
2018-Jul-15 13:25N 38°56' W 075°19'0 0.0
2018-Jul-15 12:57N 38°56' W 075°19'0 0.0
2018-Jul-15 12:30N 38°56' W 075°19'0 0.0
2018-Jul-15 12:00N 38°56' W 075°19'0 0.5
2018-Jul-15 11:29N 38°57' W 075°19'816.9
2018-Jul-15 11:00N 38°55' W 075°09'812.9
2018-Jul-15 10:23N 38°56' W 075°19'0 0.0
2018-Jul-15 09:42N 38°56' W 075°19'0 0.0
2018-Jul-15 09:24N 38°56' W 075°19'0 0.0
2018-Jul-15 09:00N 38°56' W 075°19'711.4
2018-Jul-15 08:25N 38°57' W 075°10'717.0
2018-Jul-15 08:00N 38°56' W 075°19'0 0.2
2018-Jul-15 07:29N 38°56' W 075°19'0 0.0
2018-Jul-15 06:50N 38°56' W 075°19'0 0.0
2018-Jul-15 06:11N 38°56' W 075°19'0 0.0
2018-Jul-15 06:00N 38°56' W 075°19'0 0.0
2018-Jul-15 05:30N 38°56' W 075°19'0 0.0
2018-Jul-15 04:53N 38°56' W 075°19'0 0.0
2018-Jul-15 04:30N 38°56' W 075°19'0 0.0
2018-Jul-15 04:00N 38°56' W 075°19'0 0.0
2018-Jul-15 03:30N 38°56' W 075°19'0 0.5
2018-Jul-15 03:01N 38°57' W 075°19'815.8
2018-Jul-15 02:31N 38°55' W 075°09'3 6.6
2018-Jul-15 02:00N 38°58' W 075°11'0 0.3
2018-Jul-15 01:30N 38°58' W 075°12'0 0.4
2018-Jul-15 00:50N 38°58' W 075°11'0 0.3
2018-Jul-15 00:30N 38°58' W 075°11'1 0.4
2018-Jul-14 21:26N 38°57' W 075°11'1 0.2
2018-Jul-14 13:35N 38°56' W 075°10'117.4
2018-Jul-14 13:30N 38°56' W 075°12'610.0
2018-Jul-14 12:55N 38°56' W 075°19'0 0.0
2018-Jul-14 12:21N 38°56' W 075°19'0 0.0
2018-Jul-14 12:00N 38°56' W 075°19'0 0.9
2018-Jul-14 11:31N 38°57' W 075°19'4 8.2
2018-Jul-14 11:00N 38°57' W 075°13'4 6.3
2018-Jul-14 10:18N 38°56' W 075°19'0 0.0
2018-Jul-14 10:01N 38°56' W 075°19'0 0.0
2018-Jul-14 09:31N 38°56' W 075°19'0 0.0
2018-Jul-14 09:00N 38°56' W 075°19'0 0.0
2018-Jul-14 08:31N 38°56' W 075°19'0 0.0
2018-Jul-14 07:57N 38°56' W 075°19'0 0.0
2018-Jul-14 07:30N 38°56' W 075°19'0 0.0
2018-Jul-14 07:00N 38°56' W 075°19'0 0.0
2018-Jul-14 06:31N 38°56' W 075°19'0 0.0
2018-Jul-14 06:00N 38°56' W 075°19'0 0.0
2018-Jul-14 05:30N 38°56' W 075°19'0 0.0
2018-Jul-14 05:00N 38°56' W 075°19'0 0.0
2018-Jul-14 04:30N 38°56' W 075°19'0 0.0
2018-Jul-14 03:54N 38°56' W 075°19'0 0.0
2018-Jul-14 03:26N 38°56' W 075°19'0 0.0
2018-Jul-14 03:00N 38°56' W 075°19'0 0.0
2018-Jul-14 02:29N 38°56' W 075°19'0 0.0
2018-Jul-14 01:58N 38°56' W 075°19'0 0.0
2018-Jul-14 01:25N 38°56' W 075°19'0 0.0
2018-Jul-14 00:41N 38°56' W 075°19'1 0.1
2018-Jul-13 15:38N 38°56' W 075°18'1 0.6
2018-Jul-13 13:56N 38°56' W 075°19'715.5
2018-Jul-13 13:29N 38°56' W 075°10'7 3.2
2018-Jul-13 11:19N 38°56' W 075°19'0 0.0
2018-Jul-13 08:32N 38°56' W 075°19'0 0.2
2018-Jul-13 08:30N 38°56' W 075°19'6 9.1
2018-Jul-13 07:52N 38°57' W 075°12'1 1.6
2018-Jul-13 07:31N 38°56' W 075°12'5 2.5
2018-Jul-13 05:19N 38°56' W 075°19'6 8.8
2018-Jul-13 04:39N 38°57' W 075°12'0 2.0
2018-Jul-13 04:29N 38°57' W 075°11'510.4
2018-Jul-13 04:01N 38°56' W 075°17'1 2.6
2018-Jul-13 03:30N 38°56' W 075°19'0 0.0
2018-Jul-13 03:00N 38°56' W 075°19'0 0.0
2018-Jul-13 02:30N 38°56' W 075°19'0 0.0
2018-Jul-13 02:00N 38°56' W 075°19'0 0.0
2018-Jul-13 01:30N 38°56' W 075°19'0 0.0
2018-Jul-13 01:01N 38°56' W 075°19'0 0.0
2018-Jul-13 00:30N 38°56' W 075°19'7 1.4
2018-Jul-12 19:51N 38°57' W 075°11'614.7
2018-Jul-12 19:28N 38°56' W 075°18'6 2.1
2018-Jul-12 16:37N 38°57' W 075°10'410.4
2018-Jul-12 16:16N 38°57' W 075°15'8 2.1
2018-Jul-12 12:41N 38°54' W 075°06'423.1
2018-Jul-12 12:30N 38°55' W 075°11'6 0.7
2018-Jul-12 02:57N 38°56' W 075°19'0 0.0
2018-Jul-12 02:09N 38°56' W 075°19'0 0.0
2018-Jul-12 01:51N 38°56' W 075°19'0 0.0
2018-Jul-12 01:30N 38°56' W 075°19'0 0.0
2018-Jul-12 00:55N 38°56' W 075°19'0 0.0
2018-Jul-12 00:27N 38°56' W 075°19'712.5
2018-Jul-11 23:51N 38°56' W 075°10'616.9
2018-Jul-11 23:30N 38°56' W 075°17'6 3.0
2018-Jul-11 21:36N 38°56' W 075°09'213.0
2018-Jul-11 21:26N 38°56' W 075°12'3 0.3
2018-Jul-11 13:33N 38°59' W 075°13'010.6
2018-Jul-11 13:30N 38°59' W 075°12'1122.2
2018-Jul-11 13:00N 38°47' W 075°10'510.5
2018-Jul-11 12:30N 38°52' W 075°06'510.1
2018-Jul-11 11:58N 38°47' W 075°10'919.1
2018-Jul-11 11:30N 38°55' W 075°15'3 0.7
2018-Jul-11 06:22N 38°56' W 075°19'0 0.0
2018-Jul-11 06:00N 38°56' W 075°19'2 3.1
2018-Jul-11 05:30N 38°56' W 075°17'713.3
2018-Jul-11 05:01N 38°55' W 075°09'5 9.9
2018-Jul-11 04:30N 38°59' W 075°12'611.3
2018-Jul-11 04:00N 38°56' W 075°19'0 0.0
2018-Jul-11 03:30N 38°56' W 075°19'0 0.0
2018-Jul-11 03:00N 38°56' W 075°19'0 0.0
2018-Jul-11 02:22N 38°56' W 075°19'0 0.0
2018-Jul-11 02:00N 38°56' W 075°19'0 0.0
2018-Jul-11 01:30N 38°56' W 075°19'5 9.5
2018-Jul-11 00:55N 38°55' W 075°12'2 4.5
2018-Jul-11 00:23N 38°56' W 075°09'717.5
2018-Jul-11 00:01N 38°56' W 075°18'1 1.9
2018-Jul-10 23:29N 38°56' W 075°19'0 0.2
2018-Jul-10 21:14N 38°57' W 075°18'6 2.8
2018-Jul-10 19:11N 38°58' W 075°11'4 3.5
2018-Jul-10 18:08N 38°55' W 075°09'314.5
2018-Jul-10 17:54N 38°57' W 075°11'3 1.1
2018-Jul-10 14:55N 38°55' W 075°09'0 0.1
2018-Jul-10 13:34N 38°55' W 075°09'0 1.9
2018-Jul-10 13:28N 38°55' W 075°09'817.4
2018-Jul-10 13:00N 38°57' W 075°19'0 0.2
2018-Jul-10 12:20N 38°56' W 075°19'514.1
2018-Jul-10 12:01N 38°56' W 075°13'  

Dump ship's entire track history